createdAt,value
2022-10-07T03:24:04.912Z,9.50
2022-10-07T07:37:10.273Z,9.20
2022-10-07T07:39:37.089Z,10.00
2022-10-07T07:42:04.199Z,10.00
2022-10-07T07:44:34.124Z,10.00
2022-10-07T07:47:01.848Z,10.10
2022-10-07T07:49:31.865Z,10.20
2022-10-07T07:51:59.133Z,10.20
2022-10-07T07:54:27.343Z,10.30
2022-10-07T07:56:55.427Z,10.30
2022-10-07T07:59:23.437Z,10.40
2022-10-07T09:26:26.833Z,10.50
2022-10-07T10:36:07.773Z,14.00
2022-10-07T10:41:29.779Z,16.20
2022-10-07T10:52:54.600Z,16.60
2022-10-07T11:14:05.869Z,17.70
2022-10-07T11:17:03.299Z,18.50
2022-10-07T11:19:42.334Z,18.30
2022-10-07T11:22:16.167Z,18.70
2022-10-07T11:24:50.790Z,19.30
2022-10-07T11:27:24.906Z,18.80
2022-10-07T12:03:17.629Z,19.30
2022-10-07T12:05:50.565Z,19.30
2022-10-07T12:08:36.094Z,19.80
2022-10-07T12:11:12.418Z,19.60
2022-10-07T12:13:45.229Z,18.70
2022-10-07T12:16:24.125Z,19.00
2022-10-07T12:19:11.257Z,19.20
2022-10-07T12:22:00.237Z,19.40
2022-10-07T12:24:29.461Z,20.90
2022-10-07T12:27:13.259Z,20.60
2022-10-07T12:30:05.214Z,20.40
2022-10-07T12:32:48.167Z,20.00
2022-10-07T12:35:33.412Z,19.90
2022-10-07T12:38:03.102Z,20.00
2022-10-07T12:40:31.681Z,20.60
2022-10-07T12:43:35.382Z,20.50
2022-10-07T12:46:07.760Z,20.50
2022-10-07T12:48:42.368Z,20.70
2022-10-07T12:51:19.452Z,21.10
2022-10-07T12:53:48.006Z,20.70
2022-10-07T12:56:25.811Z,20.70
2022-10-07T13:22:06.926Z,21.50
2022-10-07T13:24:33.777Z,21.60
2022-10-07T13:27:00.706Z,21.90
2022-10-07T13:29:33.085Z,21.70
2022-10-07T13:32:07.303Z,21.70
2022-10-07T13:34:34.926Z,21.30
2022-10-07T13:37:02.447Z,22.00
2022-10-07T13:39:30.656Z,21.50
2022-10-07T13:42:02.087Z,21.20
2022-10-07T13:44:32.569Z,21.40
2022-10-07T13:47:05.846Z,21.60
2022-10-07T13:49:43.535Z,21.70
2022-10-07T13:52:21.827Z,21.90
2022-10-07T13:54:53.045Z,21.90
2022-10-07T14:40:46.633Z,21.80
2022-10-07T14:43:13.507Z,20.10
2022-10-07T14:45:42.414Z,20.00
2022-10-07T14:48:13.902Z,20.00
2022-10-07T14:50:40.871Z,20.00
2022-10-07T14:53:13.044Z,19.70
2022-10-07T14:55:39.887Z,20.00
2022-10-07T14:58:08.518Z,20.10
2022-10-07T15:00:39.444Z,19.70
2022-10-07T15:03:06.763Z,19.50
2022-10-07T15:05:33.862Z,19.50
2022-10-07T15:08:01.583Z,19.40
2022-10-07T15:10:28.520Z,19.30
2022-10-07T15:12:59.507Z,19.30
2022-10-07T15:15:28.704Z,19.30
2022-10-07T15:17:55.477Z,19.50
2022-10-07T15:20:22.636Z,19.60
2022-10-07T15:22:50.862Z,19.40
2022-10-07T15:25:19.337Z,19.60
2022-10-07T15:27:46.114Z,19.40
2022-10-07T15:30:13.474Z,19.60
2022-10-07T15:32:40.628Z,19.50
2022-10-07T15:35:08.044Z,19.20
2022-10-07T15:37:34.917Z,19.20
2022-10-07T15:40:01.809Z,19.20
2022-10-07T15:42:28.606Z,19.00
2022-10-07T15:44:55.613Z,18.70
2022-10-07T15:47:22.379Z,18.60
2022-10-07T15:49:49.494Z,18.50
2022-10-07T15:52:16.742Z,18.50
2022-10-07T15:54:46.434Z,18.40
2022-10-07T15:57:14.457Z,18.40
2022-10-07T15:59:42.263Z,18.30
2022-10-07T16:02:18.894Z,18.30
2022-10-07T16:04:47.296Z,18.20
2022-10-07T16:07:15.054Z,18.10
2022-10-07T16:09:42.340Z,18.10
2022-10-07T16:12:09.407Z,18.00
2022-10-07T16:14:36.275Z,18.00
2022-10-07T16:17:03.168Z,18.00
2022-10-07T16:19:30.133Z,17.90
2022-10-07T16:21:56.977Z,17.90
2022-10-07T16:24:23.998Z,17.80
2022-10-07T16:26:51.219Z,17.70
2022-10-07T16:32:06.686Z,17.70
2022-10-07T16:34:33.498Z,17.50
2022-10-07T16:37:00.380Z,17.60
2022-10-07T16:39:27.295Z,17.50
2022-10-07T16:41:55.496Z,17.60
2022-10-07T16:44:23.578Z,17.30
2022-10-07T16:46:50.657Z,17.30
2022-10-07T16:49:19.036Z,17.20
2022-10-07T16:51:46.585Z,17.10
2022-10-07T16:54:16.153Z,17.10
2022-10-07T16:56:49.171Z,17.10
2022-10-07T16:59:23.007Z,17.00
2022-10-07T17:01:52.906Z,17.00
2022-10-07T17:04:19.959Z,16.90
2022-10-07T17:06:47.275Z,16.80
2022-10-07T17:09:14.369Z,16.80
2022-10-07T17:11:41.662Z,16.70
2022-10-07T17:14:17.599Z,16.60
2022-10-07T17:16:48.718Z,16.60
2022-10-07T17:19:18.412Z,16.60
2022-10-07T17:21:47.711Z,16.50
2022-10-07T17:24:15.993Z,16.40
2022-10-07T17:26:43.400Z,16.50
2022-10-07T17:29:12.504Z,16.40
2022-10-07T17:31:42.600Z,16.30
2022-10-07T17:36:39.698Z,16.20
2022-10-07T17:39:07.962Z,16.20
2022-10-07T17:41:37.209Z,16.20
2022-10-07T17:44:09.264Z,16.20
2022-10-07T17:46:39.201Z,16.20
2022-10-07T17:49:08.693Z,16.10
2022-10-07T17:51:37.375Z,16.10
2022-10-07T17:54:06.059Z,16.00
2022-10-07T17:56:34.253Z,16.00
2022-10-07T17:59:01.792Z,16.00
2022-10-07T18:01:31.018Z,16.00
2022-10-07T18:04:05.835Z,15.90
2022-10-07T18:06:38.391Z,15.90
2022-10-07T18:09:07.052Z,15.80
2022-10-07T18:11:52.476Z,15.80
2022-10-07T18:14:38.463Z,15.80
2022-10-07T18:17:06.288Z,15.70
2022-10-07T18:19:34.039Z,15.70
2022-10-07T18:22:02.958Z,15.70
2022-10-07T18:24:29.887Z,15.60
2022-10-07T18:26:59.355Z,15.50
2022-10-07T18:29:27.958Z,15.60
2022-10-07T18:31:55.142Z,15.50
2022-10-07T18:34:22.346Z,15.50
2022-10-07T18:36:53.785Z,15.50
2022-10-07T18:39:22.987Z,15.40
2022-10-07T18:41:49.861Z,15.40
2022-10-07T18:51:41.430Z,15.30
2022-10-07T18:54:08.425Z,15.20
2022-10-07T18:56:39.985Z,15.20
2022-10-07T18:59:09.617Z,15.20
2022-10-07T19:01:37.841Z,15.20
2022-10-07T19:04:06.626Z,15.20
2022-10-07T19:06:36.785Z,15.20
2022-10-07T19:09:11.370Z,15.20
2022-10-07T19:11:38.171Z,15.20
2022-10-07T19:14:05.185Z,15.10
2022-10-07T19:16:41.556Z,15.10
2022-10-07T19:19:24.827Z,15.10
2022-10-07T19:21:54.543Z,15.00
2022-10-07T19:24:42.088Z,15.00
2022-10-07T19:27:09.013Z,15.00
2022-10-07T19:29:35.862Z,15.00
2022-10-07T19:32:07.821Z,15.00
2022-10-07T19:34:35.246Z,14.90
2022-10-07T19:37:02.032Z,14.90
2022-10-07T19:39:28.904Z,14.90
2022-10-07T19:41:57.413Z,14.80
2022-10-07T19:44:24.611Z,14.80
2022-10-07T19:46:52.487Z,14.70
2022-10-07T19:49:19.514Z,14.70
2022-10-07T19:51:46.448Z,14.60
2022-10-07T21:46:16.652Z,14.60
2022-10-07T21:51:11.460Z,13.10
2022-10-07T21:53:38.322Z,13.00
2022-10-07T22:56:14.405Z,12.80
2022-10-07T22:58:43.070Z,12.10
2022-10-07T23:01:13.153Z,12.10
2022-10-07T23:03:43.889Z,12.00
2022-10-07T23:06:12.939Z,12.10
2022-10-07T23:08:39.953Z,12.10
2022-10-07T23:11:08.112Z,12.00
2022-10-07T23:13:36.591Z,12.00
2022-10-07T23:16:06.270Z,12.00
2022-10-07T23:18:33.377Z,11.90
2022-10-07T23:21:15.226Z,11.90
2022-10-07T23:23:44.908Z,11.90
2022-10-07T23:26:12.846Z,11.90
2022-10-07T23:28:40.559Z,11.80
2022-10-07T23:31:12.102Z,11.80
2022-10-07T23:33:38.952Z,11.80
2022-10-07T23:36:10.668Z,11.80
2022-10-07T23:38:44.919Z,11.80
2022-10-07T23:41:20.181Z,11.80
2022-10-07T23:43:58.450Z,11.90
2022-10-07T23:46:27.008Z,11.90
2022-10-07T23:48:54.846Z,11.90
2022-10-07T23:51:24.556Z,11.80
2022-10-07T23:53:51.312Z,11.90
2022-10-07T23:56:20.782Z,11.80
2022-10-07T23:58:47.620Z,11.80
